createdAt,value
2017-09-26T00:00:14.234Z,34.87
2017-09-26T00:02:42.659Z,33.97
2017-09-26T00:05:11.179Z,37.80
2017-09-26T00:07:39.664Z,38.13
2017-09-26T00:10:08.116Z,37.97
2017-09-26T00:12:37.317Z,40.10
2017-09-26T00:15:06.527Z,39.40
2017-09-26T00:17:35.842Z,37.90
2017-09-26T00:20:04.277Z,38.60
2017-09-26T00:22:32.737Z,39.73
2017-09-26T00:25:01.196Z,41.30
2017-09-26T00:27:29.652Z,40.87
2017-09-26T00:29:58.852Z,40.90
2017-09-26T00:32:28.058Z,38.63
2017-09-26T00:34:56.487Z,38.60
2017-09-26T00:37:24.945Z,39.20
2017-09-26T00:39:53.380Z,41.10
2017-09-26T00:42:22.660Z,40.30
2017-09-26T00:44:51.206Z,37.53
2017-09-26T00:47:19.783Z,37.73
2017-09-26T00:49:48.215Z,39.80
2017-09-26T00:52:16.664Z,42.00
2017-09-26T00:54:45.115Z,40.03
2017-09-26T00:57:13.556Z,40.80
2017-09-26T00:59:42.016Z,41.03
2017-09-26T01:02:10.443Z,40.53
2017-09-26T01:04:39.655Z,41.97
2017-09-26T01:07:12.860Z,41.57
2017-09-26T01:09:41.303Z,41.40
2017-09-26T01:12:09.828Z,40.50
2017-09-26T01:14:38.276Z,45.67
2017-09-26T01:17:07.708Z,43.37
2017-09-26T01:19:36.180Z,40.70
2017-09-26T01:22:04.607Z,42.20
2017-09-26T01:24:33.061Z,44.83
2017-09-26T01:27:01.503Z,46.73
2017-09-26T01:29:30.703Z,46.57
2017-09-26T01:32:00.040Z,45.33
2017-09-26T01:34:28.463Z,50.70
2017-09-26T01:36:56.923Z,48.77
2017-09-26T01:39:25.360Z,51.83
2017-09-26T01:41:54.683Z,49.07
2017-09-26T01:44:23.163Z,53.90
2017-09-26T01:46:51.608Z,49.97
2017-09-26T01:49:20.818Z,54.20
2017-09-26T01:51:50.031Z,52.60
2017-09-26T01:54:18.458Z,48.00
2017-09-26T01:56:48.715Z,51.10
2017-09-26T01:59:18.828Z,49.00
2017-09-26T02:01:47.347Z,54.33
2017-09-26T02:04:15.843Z,50.83
2017-09-26T02:06:44.416Z,52.93
2017-09-26T02:09:12.852Z,50.70
2017-09-26T02:11:41.375Z,56.20
2017-09-26T02:14:09.861Z,54.70
2017-09-26T02:16:38.290Z,52.93
2017-09-26T02:19:06.748Z,52.07
2017-09-26T02:21:35.203Z,52.67
2017-09-26T02:24:03.651Z,54.20
2017-09-26T02:26:32.091Z,54.33
2017-09-26T02:29:00.651Z,52.37
2017-09-26T02:31:29.079Z,52.83
2017-09-26T02:33:57.535Z,49.90
2017-09-26T02:36:25.994Z,53.90
2017-09-26T02:38:54.476Z,50.23
2017-09-26T02:41:22.971Z,54.17
2017-09-26T02:43:51.413Z,49.77
2017-09-26T02:46:20.637Z,47.27
2017-09-26T02:48:49.071Z,48.90
2017-09-26T02:51:18.301Z,50.83
2017-09-26T02:53:47.505Z,53.00
2017-09-26T02:56:15.965Z,49.53
2017-09-26T02:58:45.199Z,50.80
2017-09-26T03:01:13.646Z,53.13
2017-09-26T03:03:42.879Z,51.57
2017-09-26T03:06:11.368Z,50.33
2017-09-26T03:08:39.803Z,52.97
2017-09-26T03:11:08.244Z,53.47
2017-09-26T03:13:36.711Z,48.10
2017-09-26T03:16:05.155Z,52.73
2017-09-26T03:18:34.380Z,50.67
2017-09-26T03:21:02.808Z,51.17
2017-09-26T03:23:31.263Z,49.60
2017-09-26T03:25:59.705Z,47.10
2017-09-26T03:28:28.927Z,54.80
2017-09-26T03:30:57.360Z,49.37
2017-09-26T03:33:25.891Z,48.90
2017-09-26T03:35:54.319Z,51.17
2017-09-26T03:38:22.756Z,50.33
2017-09-26T03:40:51.208Z,50.17
2017-09-26T03:43:20.440Z,53.67
2017-09-26T03:45:48.891Z,46.77
2017-09-26T03:48:18.096Z,47.27
2017-09-26T03:50:47.414Z,48.50
2017-09-26T03:53:15.839Z,48.30
2017-09-26T03:55:44.287Z,48.90
2017-09-26T03:58:12.720Z,53.67
2017-09-26T04:00:41.184Z,52.13
2017-09-26T04:03:09.620Z,47.23
2017-09-26T04:05:38.208Z,51.67
2017-09-26T04:08:06.639Z,49.43
2017-09-26T04:10:35.579Z,49.00
2017-09-26T04:13:04.036Z,50.00
2017-09-26T04:15:33.268Z,47.60
2017-09-26T04:18:01.722Z,47.27
2017-09-26T04:20:30.932Z,45.73
2017-09-26T04:22:59.431Z,48.20
2017-09-26T04:25:27.868Z,42.97
2017-09-26T04:27:56.387Z,45.93
2017-09-26T04:30:24.881Z,50.13
2017-09-26T04:32:53.332Z,47.67
2017-09-26T04:35:22.543Z,47.07
2017-09-26T04:37:51.050Z,45.47
2017-09-26T04:40:19.510Z,42.53
2017-09-26T04:42:47.980Z,44.17
2017-09-26T04:45:17.176Z,44.10
2017-09-26T04:47:46.376Z,46.07
2017-09-26T04:50:15.590Z,35.17
2017-09-26T04:52:44.032Z,46.50
2017-09-26T04:55:12.555Z,42.90
2017-09-26T04:57:40.988Z,44.00
2017-09-26T05:00:09.444Z,44.03
2017-09-26T05:02:37.880Z,45.80
2017-09-26T05:05:07.108Z,49.50
2017-09-26T05:07:35.551Z,49.80
2017-09-26T05:10:04.776Z,45.83
2017-09-26T05:12:33.211Z,45.23
2017-09-26T05:15:01.688Z,43.63
2017-09-26T05:17:30.128Z,46.90
2017-09-26T05:19:58.612Z,45.83
2017-09-26T05:22:27.092Z,42.90
2017-09-26T05:24:55.520Z,43.87
2017-09-26T05:27:23.984Z,46.53
2017-09-26T05:29:52.420Z,44.00
2017-09-26T05:32:21.639Z,45.03
2017-09-26T05:34:50.087Z,47.40
2017-09-26T05:37:19.334Z,45.93
2017-09-26T05:39:47.769Z,41.27
2017-09-26T05:42:16.962Z,44.67
2017-09-26T05:44:46.286Z,43.60
2017-09-26T05:47:14.707Z,42.17
2017-09-26T05:49:43.146Z,44.00
2017-09-26T05:52:11.640Z,45.33
2017-09-26T05:54:40.097Z,42.57
2017-09-26T05:57:09.301Z,40.30
2017-09-26T05:59:38.619Z,41.53
2017-09-26T06:02:07.042Z,41.50
2017-09-26T06:04:35.583Z,41.67
2017-09-26T06:07:04.020Z,43.57
2017-09-26T06:09:32.546Z,43.27
2017-09-26T06:12:00.967Z,40.27
2017-09-26T06:14:29.421Z,42.10
2017-09-26T06:16:57.865Z,44.33
2017-09-26T06:19:27.186Z,41.80
2017-09-26T06:21:55.680Z,42.20
2017-09-26T06:24:24.102Z,40.37
2017-09-26T06:26:52.547Z,42.23
2017-09-26T06:29:20.991Z,44.90
2017-09-26T06:31:50.208Z,41.07
2017-09-26T06:34:18.649Z,46.30
2017-09-26T06:36:47.091Z,39.23
2017-09-26T06:39:15.515Z,41.73
2017-09-26T06:41:43.969Z,39.80
2017-09-26T06:44:12.433Z,40.53
2017-09-26T06:46:40.874Z,41.80
2017-09-26T06:49:10.128Z,42.00
2017-09-26T06:51:38.640Z,41.40
2017-09-26T06:54:08.428Z,38.80
2017-09-26T06:56:36.888Z,40.60
2017-09-26T06:59:05.331Z,38.33
2017-09-26T07:01:35.060Z,39.63
2017-09-26T07:04:03.514Z,41.07
2017-09-26T07:06:31.943Z,40.80
2017-09-26T07:09:00.381Z,45.13
2017-09-26T07:11:28.807Z,45.93
2017-09-26T07:13:57.255Z,44.30
2017-09-26T07:16:26.456Z,50.47
2017-09-26T07:18:55.672Z,44.27
2017-09-26T07:21:24.108Z,45.43
2017-09-26T07:23:52.587Z,47.27
2017-09-26T07:26:21.021Z,42.37
2017-09-26T07:28:49.457Z,47.50
2017-09-26T07:31:17.918Z,48.27
2017-09-26T07:33:46.348Z,46.70
2017-09-26T07:36:15.672Z,46.60
2017-09-26T07:38:44.119Z,46.30
2017-09-26T07:41:13.456Z,43.10
2017-09-26T07:43:41.930Z,41.93
2017-09-26T07:46:10.372Z,41.33
2017-09-26T07:48:38.808Z,42.60
2017-09-26T07:51:07.291Z,39.57
2017-09-26T07:53:35.719Z,40.47
2017-09-26T07:56:04.201Z,36.87
2017-09-26T07:58:32.706Z,41.10
2017-09-26T08:01:02.163Z,43.10
2017-09-26T08:03:31.277Z,41.80
2017-09-26T08:06:00.461Z,39.97
2017-09-26T08:08:29.799Z,43.33
2017-09-26T08:10:58.990Z,43.60
2017-09-26T08:13:28.216Z,38.27
2017-09-26T08:15:56.648Z,42.33
2017-09-26T08:18:25.100Z,38.80
2017-09-26T08:20:53.528Z,38.97
2017-09-26T08:23:21.988Z,38.47
2017-09-26T08:25:50.424Z,34.60
2017-09-26T08:28:18.874Z,35.87
2017-09-26T08:30:48.071Z,38.00
2017-09-26T08:33:17.321Z,38.73
2017-09-26T08:35:45.787Z,33.20
2017-09-26T08:38:14.219Z,37.10
2017-09-26T08:40:42.666Z,35.83
2017-09-26T08:43:11.101Z,36.30
2017-09-26T08:45:40.323Z,36.13
2017-09-26T08:48:08.746Z,37.17
2017-09-26T08:50:37.204Z,37.67
2017-09-26T08:53:05.635Z,38.60
2017-09-26T08:55:34.095Z,38.03
2017-09-26T08:58:02.634Z,39.80
2017-09-26T09:00:31.084Z,37.70
2017-09-26T09:03:00.319Z,38.70
2017-09-26T09:05:28.776Z,40.90
2017-09-26T09:07:57.971Z,38.60
2017-09-26T09:10:27.190Z,38.27
2017-09-26T09:12:55.711Z,39.97
2017-09-26T09:15:24.263Z,39.60
2017-09-26T09:17:52.686Z,37.37
2017-09-26T09:20:21.231Z,43.37
2017-09-26T09:22:49.667Z,38.93
2017-09-26T09:25:18.100Z,40.50
2017-09-26T09:27:46.567Z,41.20
2017-09-26T09:30:14.992Z,40.30
2017-09-26T09:32:43.450Z,40.10
2017-09-26T09:35:11.927Z,42.80
2017-09-26T09:37:40.387Z,42.40
2017-09-26T09:40:08.816Z,45.30
2017-09-26T09:42:37.266Z,40.33
2017-09-26T09:45:05.708Z,45.73
2017-09-26T09:47:34.932Z,41.67
2017-09-26T09:50:03.354Z,42.40
2017-09-26T09:52:31.914Z,43.60
2017-09-26T09:55:00.355Z,42.60
2017-09-26T09:57:29.692Z,42.47
2017-09-26T09:59:58.121Z,41.93
2017-09-26T10:02:26.560Z,39.97
2017-09-26T10:04:55.022Z,41.77
2017-09-26T10:07:23.511Z,41.57
2017-09-26T10:09:51.958Z,42.30
2017-09-26T10:12:20.385Z,41.83
2017-09-26T10:14:48.840Z,44.50
2017-09-26T10:17:18.055Z,32.80
2017-09-26T10:19:46.502Z,41.83
2017-09-26T10:22:15.735Z,39.93
2017-09-26T10:24:44.202Z,40.90
2017-09-26T10:27:13.400Z,41.87
2017-09-26T10:29:42.724Z,41.87
2017-09-26T10:32:11.168Z,36.97
2017-09-26T10:34:40.403Z,40.90
2017-09-26T10:37:08.888Z,42.20
2017-09-26T10:39:37.340Z,40.77
2017-09-26T10:42:06.561Z,40.87
2017-09-26T10:44:34.996Z,39.33
2017-09-26T10:47:03.522Z,41.10
2017-09-26T10:49:32.021Z,35.40
2017-09-26T10:52:00.480Z,41.00
2017-09-26T10:54:28.966Z,36.63
2017-09-26T10:56:57.410Z,38.70
2017-09-26T10:59:25.949Z,43.13
2017-09-26T11:01:54.399Z,41.40
2017-09-26T11:04:23.611Z,39.67
2017-09-26T11:06:52.085Z,38.93
2017-09-26T11:09:21.279Z,37.40
2017-09-26T11:11:50.477Z,42.73
2017-09-26T11:14:19.696Z,41.80
2017-09-26T11:16:48.137Z,44.30
2017-09-26T11:19:16.577Z,40.67
2017-09-26T11:21:45.012Z,45.40
2017-09-26T11:24:14.218Z,42.77
2017-09-26T11:26:43.407Z,34.10
2017-09-26T11:29:12.627Z,40.80
2017-09-26T11:31:41.119Z,39.90
2017-09-26T11:34:09.581Z,41.40
2017-09-26T11:36:38.776Z,40.80
2017-09-26T11:39:07.988Z,40.77
2017-09-26T11:41:36.444Z,40.60
2017-09-26T11:44:05.644Z,40.17
2017-09-26T11:46:34.869Z,38.27
2017-09-26T11:49:03.299Z,41.67
2017-09-26T11:51:31.749Z,38.30
2017-09-26T11:54:00.184Z,39.80
2017-09-26T11:56:28.631Z,32.37
2017-09-26T11:58:57.059Z,37.80
2017-09-26T12:01:26.297Z,41.10
2017-09-26T12:03:54.767Z,40.20
2017-09-26T12:06:23.256Z,38.20
2017-09-26T12:08:51.712Z,40.13
2017-09-26T12:11:20.909Z,38.93
2017-09-26T12:13:55.648Z,39.33
2017-09-26T12:16:24.136Z,40.63
2017-09-26T12:18:52.588Z,37.77
2017-09-26T12:21:21.782Z,34.80
2017-09-26T12:23:50.234Z,33.37
2017-09-26T12:26:18.779Z,34.77
2017-09-26T12:28:47.258Z,38.10
2017-09-26T12:31:15.687Z,32.00
2017-09-26T12:33:44.144Z,36.80
2017-09-26T12:36:12.611Z,34.73
2017-09-26T12:38:41.068Z,35.53
2017-09-26T12:41:10.263Z,34.47
2017-09-26T12:43:39.485Z,33.17
2017-09-26T12:46:07.916Z,34.67
2017-09-26T12:48:36.456Z,34.60
2017-09-26T12:51:04.939Z,35.37
2017-09-26T12:53:33.382Z,33.77
2017-09-26T12:56:02.620Z,33.27
2017-09-26T12:58:31.113Z,34.97
2017-09-26T13:00:59.579Z,35.07
2017-09-26T13:03:28.059Z,34.67
2017-09-26T13:05:56.520Z,34.17
2017-09-26T13:08:25.710Z,36.13
2017-09-26T13:10:54.944Z,38.30
2017-09-26T13:13:23.408Z,36.47
2017-09-26T13:15:52.728Z,42.50
2017-09-26T13:18:21.177Z,35.20
2017-09-26T13:20:50.404Z,41.83
2017-09-26T13:23:18.831Z,35.80
2017-09-26T13:25:47.270Z,40.23
2017-09-26T13:28:15.753Z,38.90
2017-09-26T13:30:44.203Z,37.00
2017-09-26T13:33:13.452Z,35.20
2017-09-26T13:35:42.011Z,39.63
2017-09-26T13:38:10.490Z,37.60
2017-09-26T13:40:38.924Z,39.00
2017-09-26T13:43:07.375Z,38.30
2017-09-26T13:45:35.807Z,41.43
2017-09-26T13:48:05.039Z,41.80
2017-09-26T13:50:33.472Z,44.97
2017-09-26T13:53:01.923Z,42.97
2017-09-26T13:55:30.361Z,44.67
2017-09-26T13:57:59.584Z,42.70
2017-09-26T14:00:28.019Z,41.40
2017-09-26T14:02:56.627Z,43.63
2017-09-26T14:05:25.820Z,39.17
2017-09-26T14:07:55.036Z,44.50
2017-09-26T14:10:23.523Z,42.57
2017-09-26T14:12:52.004Z,43.87
2017-09-26T14:15:20.426Z,44.57
2017-09-26T14:17:48.867Z,38.50
2017-09-26T14:20:17.325Z,40.40
2017-09-26T14:22:46.523Z,43.70
2017-09-26T14:25:15.741Z,43.20
2017-09-26T14:27:44.248Z,40.47
2017-09-26T14:30:12.696Z,42.80
2017-09-26T14:32:41.894Z,42.70
2017-09-26T14:35:11.114Z,41.83
2017-09-26T14:37:39.615Z,47.37
2017-09-26T14:40:08.064Z,41.07
2017-09-26T14:42:36.496Z,38.77
2017-09-26T14:45:04.952Z,41.77
2017-09-26T14:47:33.383Z,43.17
2017-09-26T14:50:02.603Z,44.43
2017-09-26T14:52:31.806Z,41.20
2017-09-26T14:55:00.254Z,40.93
2017-09-26T14:57:30.229Z,40.60
2017-09-26T14:59:58.796Z,41.23
2017-09-26T15:02:27.226Z,41.30
2017-09-26T15:04:55.763Z,41.10
2017-09-26T15:07:24.254Z,39.10
2017-09-26T15:09:52.724Z,41.70
2017-09-26T15:12:21.177Z,42.03
2017-09-26T15:14:50.372Z,41.80
2017-09-26T15:17:20.210Z,40.07
2017-09-26T15:19:48.652Z,41.00
2017-09-26T15:22:17.103Z,41.07
2017-09-26T15:24:45.531Z,42.83
2017-09-26T15:27:14.751Z,38.87
2017-09-26T15:29:43.244Z,42.80
2017-09-26T15:32:11.696Z,39.50
2017-09-26T15:34:40.924Z,35.53
2017-09-26T15:37:09.372Z,37.47
2017-09-26T15:39:38.598Z,39.30
2017-09-26T15:42:07.087Z,38.03
2017-09-26T15:44:35.576Z,35.43
2017-09-26T15:47:04.028Z,35.97
2017-09-26T15:49:33.256Z,37.93
2017-09-26T15:52:01.731Z,34.77
2017-09-26T15:54:30.164Z,34.93
2017-09-26T15:56:58.643Z,35.63
2017-09-26T15:59:27.073Z,37.97
2017-09-26T16:01:55.559Z,37.93
2017-09-26T16:04:24.050Z,37.63
2017-09-26T16:06:52.484Z,35.20
2017-09-26T16:09:21.713Z,37.80
2017-09-26T16:11:50.152Z,37.03
2017-09-26T16:14:18.606Z,34.87
2017-09-26T16:16:47.030Z,35.00
2017-09-26T16:19:16.252Z,34.33
2017-09-26T16:21:45.603Z,35.53
2017-09-26T16:24:14.061Z,34.33
2017-09-26T16:26:42.501Z,31.67
2017-09-26T16:29:11.736Z,35.63
2017-09-26T16:31:40.173Z,37.30
2017-09-26T16:34:09.423Z,36.27
2017-09-26T16:36:37.847Z,34.97
2017-09-26T16:39:06.372Z,32.90
2017-09-26T16:41:34.974Z,36.40
2017-09-26T16:44:03.402Z,36.43
2017-09-26T16:46:32.628Z,33.83
2017-09-26T16:49:01.086Z,34.27
2017-09-26T16:51:30.419Z,34.93
2017-09-26T16:53:58.847Z,33.63
2017-09-26T16:56:27.297Z,37.30
2017-09-26T16:58:55.732Z,37.27
2017-09-26T17:01:24.968Z,36.30
2017-09-26T17:03:53.395Z,35.27
2017-09-26T17:06:21.856Z,36.03
2017-09-26T17:08:50.297Z,37.37
2017-09-26T17:11:18.754Z,35.57
2017-09-26T17:13:47.956Z,35.70
2017-09-26T17:16:17.180Z,35.23
2017-09-26T17:18:45.671Z,34.67
2017-09-26T17:21:14.155Z,38.60
2017-09-26T17:23:42.630Z,35.33
2017-09-26T17:26:11.059Z,34.50
2017-09-26T17:28:39.518Z,35.00
2017-09-26T17:31:07.976Z,33.80
2017-09-26T17:33:36.431Z,34.70
2017-09-26T17:36:05.660Z,35.40
2017-09-26T17:38:34.144Z,36.60
2017-09-26T17:41:02.572Z,37.10
2017-09-26T17:43:31.028Z,35.13
2017-09-26T17:45:59.463Z,35.63
2017-09-26T17:48:28.784Z,35.20
2017-09-26T17:50:57.224Z,35.93
2017-09-26T17:53:25.740Z,35.83
2017-09-26T17:55:54.169Z,37.50
2017-09-26T17:58:22.715Z,37.10
2017-09-26T18:00:51.209Z,34.80
2017-09-26T18:03:19.664Z,34.03
2017-09-26T18:05:48.099Z,36.40
2017-09-26T18:08:16.559Z,31.97
2017-09-26T18:10:45.015Z,35.83
2017-09-26T18:13:13.484Z,33.60
2017-09-26T18:15:42.674Z,36.17
2017-09-26T18:18:11.872Z,33.97
2017-09-26T18:20:41.087Z,34.90
2017-09-26T18:23:09.521Z,40.40
2017-09-26T18:25:38.060Z,33.00
2017-09-26T18:28:06.548Z,33.17
2017-09-26T18:30:35.024Z,36.50
2017-09-26T18:33:03.454Z,31.73
2017-09-26T18:35:31.907Z,33.53
2017-09-26T18:38:00.341Z,33.03
2017-09-26T18:40:29.680Z,34.30
2017-09-26T18:42:58.116Z,33.67
2017-09-26T18:45:26.576Z,33.40
2017-09-26T18:47:55.116Z,33.20
2017-09-26T18:50:23.700Z,35.97
2017-09-26T18:52:52.131Z,32.70
2017-09-26T18:55:20.559Z,35.83
2017-09-26T18:57:49.043Z,33.40
2017-09-26T19:00:17.475Z,31.90
2017-09-26T19:02:45.936Z,35.50
2017-09-26T19:05:14.385Z,35.73
2017-09-26T19:07:42.876Z,33.50
2017-09-26T19:10:11.314Z,35.20
2017-09-26T19:12:40.551Z,32.77
2017-09-26T19:15:08.980Z,35.40
2017-09-26T19:17:37.431Z,36.27
2017-09-26T19:20:06.320Z,35.80
2017-09-26T19:22:35.799Z,33.77
2017-09-26T19:25:04.227Z,35.67
2017-09-26T19:27:32.681Z,35.90
2017-09-26T19:30:01.120Z,34.83
2017-09-26T19:32:30.455Z,36.33
2017-09-26T19:34:58.934Z,35.63
2017-09-26T19:37:27.364Z,34.73
2017-09-26T19:39:55.814Z,37.03
2017-09-26T19:42:24.251Z,33.70
2017-09-26T19:44:54.195Z,38.80
2017-09-26T19:47:22.631Z,35.47
2017-09-26T19:49:51.846Z,36.90
2017-09-26T19:52:21.047Z,38.80
2017-09-26T19:54:50.268Z,40.43
2017-09-26T19:57:18.705Z,35.63
2017-09-26T19:59:47.147Z,37.10
2017-09-26T20:02:15.575Z,35.97
2017-09-26T20:04:44.041Z,36.20
2017-09-26T20:07:12.476Z,33.73
2017-09-26T20:09:40.928Z,38.00
2017-09-26T20:12:10.159Z,39.03
2017-09-26T20:14:38.647Z,36.87
2017-09-26T20:17:07.123Z,36.00
2017-09-26T20:19:35.609Z,34.43
2017-09-26T20:22:04.487Z,38.33
2017-09-26T20:24:32.979Z,34.40
2017-09-26T20:27:01.432Z,36.43
2017-09-26T20:29:30.637Z,37.57
2017-09-26T20:31:59.960Z,34.97
2017-09-26T20:34:28.442Z,37.17
2017-09-26T20:36:56.895Z,36.70
2017-09-26T20:39:26.097Z,37.00
2017-09-26T20:41:55.315Z,35.77
2017-09-26T20:44:23.748Z,37.10
2017-09-26T20:46:52.293Z,38.07
2017-09-26T20:49:20.735Z,35.37
2017-09-26T20:51:49.946Z,38.00
2017-09-26T20:54:19.138Z,37.43
2017-09-26T20:56:48.361Z,38.50
2017-09-26T20:59:16.852Z,35.33
2017-09-26T21:01:45.318Z,39.83
2017-09-26T21:04:13.828Z,38.60
2017-09-26T21:06:42.255Z,39.00
2017-09-26T21:09:10.807Z,41.23
2017-09-26T21:11:39.234Z,41.30
2017-09-26T21:14:08.452Z,40.37
2017-09-26T21:16:36.929Z,39.00
2017-09-26T21:19:05.372Z,37.77
2017-09-26T21:21:33.899Z,42.30
2017-09-26T21:24:02.388Z,42.67
2017-09-26T21:26:30.815Z,44.40
2017-09-26T21:28:59.269Z,43.17
2017-09-26T21:31:27.708Z,43.40
2017-09-26T21:33:56.196Z,43.43
2017-09-26T21:36:24.696Z,44.23
2017-09-26T21:38:53.130Z,42.43
2017-09-26T21:41:21.662Z,44.33
2017-09-26T21:43:50.104Z,44.23
2017-09-26T21:46:19.431Z,43.37
2017-09-26T21:48:47.928Z,44.80
2017-09-26T21:51:16.407Z,41.67
2017-09-26T21:53:44.842Z,42.87
2017-09-26T21:56:13.307Z,42.07
2017-09-26T21:58:41.748Z,45.27
2017-09-26T22:01:10.200Z,41.83
2017-09-26T22:03:39.428Z,44.97
2017-09-26T22:06:07.899Z,43.83
2017-09-26T22:08:36.330Z,47.27
2017-09-26T22:11:04.871Z,44.40
2017-09-26T22:13:33.324Z,44.00
2017-09-26T22:16:02.519Z,47.33
2017-09-26T22:18:31.742Z,47.23
2017-09-26T22:21:00.167Z,47.07
2017-09-26T22:23:28.720Z,45.00
2017-09-26T22:25:57.156Z,45.30
2017-09-26T22:28:27.120Z,45.90
2017-09-26T22:30:55.610Z,45.50
2017-09-26T22:33:24.072Z,44.23
2017-09-26T22:35:52.507Z,49.67
2017-09-26T22:38:20.964Z,46.10
2017-09-26T22:40:49.428Z,47.00
2017-09-26T22:43:17.899Z,46.30
2017-09-26T22:45:46.336Z,46.57
2017-09-26T22:48:14.767Z,49.20
2017-09-26T22:50:43.224Z,46.10
2017-09-26T22:53:12.448Z,49.30
2017-09-26T22:55:40.931Z,47.90
2017-09-26T22:58:09.370Z,47.73
2017-09-26T23:00:37.822Z,50.13
2017-09-26T23:03:06.285Z,49.10
2017-09-26T23:05:34.740Z,46.77
2017-09-26T23:08:03.934Z,52.23
2017-09-26T23:10:33.176Z,51.03
2017-09-26T23:13:01.603Z,49.87
2017-09-26T23:15:30.808Z,49.80
2017-09-26T23:18:00.032Z,50.33
2017-09-26T23:20:28.459Z,54.27
2017-09-26T23:22:56.916Z,52.07
2017-09-26T23:25:25.386Z,48.87
2017-09-26T23:27:53.838Z,47.67
2017-09-26T23:30:23.026Z,53.43
2017-09-26T23:32:54.710Z,49.87
2017-09-26T23:35:23.200Z,51.13
2017-09-26T23:37:51.676Z,50.10
2017-09-26T23:40:20.117Z,48.87
2017-09-26T23:42:48.555Z,55.00
2017-09-26T23:45:17.014Z,50.23
2017-09-26T23:47:45.452Z,53.17
2017-09-26T23:50:13.907Z,51.60
2017-09-26T23:52:42.362Z,52.17
2017-09-26T23:55:10.840Z,49.73
2017-09-26T23:57:39.267Z,51.23
